createdAt,value
2023-02-15T00:01:14.961Z,17.90
2023-02-15T00:03:43.228Z,18.73
2023-02-15T00:06:11.512Z,18.73
2023-02-15T00:08:39.964Z,19.27
2023-02-15T00:11:09.435Z,20.83
2023-02-15T00:13:40.084Z,18.33
2023-02-15T00:16:10.305Z,17.90
2023-02-15T00:18:39.276Z,19.37
2023-02-15T00:21:10.478Z,20.90
2023-02-15T00:23:38.875Z,19.03
2023-02-15T00:26:12.357Z,19.80
2023-02-15T00:28:41.883Z,22.77
2023-02-15T00:31:11.924Z,19.50
2023-02-15T00:33:45.391Z,20.27
2023-02-15T00:36:14.376Z,21.33
2023-02-15T00:38:46.572Z,23.07
2023-02-15T00:41:14.732Z,20.40
2023-02-15T00:43:44.296Z,24.53
2023-02-15T00:46:12.669Z,21.10
2023-02-15T00:48:41.475Z,21.63
2023-02-15T00:51:09.554Z,22.93
2023-02-15T00:53:37.814Z,22.10
2023-02-15T00:56:06.115Z,23.93
2023-02-15T00:58:34.425Z,24.40
2023-02-15T01:01:08.161Z,20.27
2023-02-15T01:03:37.085Z,19.33
2023-02-15T01:06:06.101Z,22.50
2023-02-15T01:08:34.305Z,25.23
2023-02-15T01:11:06.979Z,23.33
2023-02-15T01:13:35.208Z,22.53
2023-02-15T01:16:04.827Z,21.43
2023-02-15T01:18:35.166Z,22.97
2023-02-15T01:21:11.649Z,23.40
2023-02-15T01:23:39.848Z,22.23
2023-02-15T01:26:08.038Z,24.30
2023-02-15T01:28:36.942Z,21.90
2023-02-15T01:31:09.570Z,24.47
2023-02-15T01:33:39.861Z,24.97
2023-02-15T01:36:08.379Z,24.13
2023-02-15T01:38:37.273Z,24.93
2023-02-15T01:41:19.840Z,23.13
2023-02-15T01:43:50.154Z,25.03
2023-02-15T01:46:20.422Z,23.93
2023-02-15T01:48:54.209Z,24.77
2023-02-15T01:51:26.632Z,27.33
2023-02-15T01:53:59.256Z,25.27
2023-02-15T01:56:31.796Z,25.53
2023-02-15T01:59:04.774Z,26.07
2023-02-15T02:01:33.276Z,25.37
2023-02-15T02:04:14.457Z,23.10
2023-02-15T02:06:42.672Z,25.40
2023-02-15T02:09:11.477Z,24.77
2023-02-15T02:11:43.090Z,25.30
2023-02-15T02:14:11.286Z,27.10
2023-02-15T02:16:48.766Z,23.23
2023-02-15T02:19:50.547Z,23.20
2023-02-15T02:22:46.906Z,22.70
2023-02-15T02:25:35.130Z,23.83
2023-02-15T02:28:15.376Z,24.80
2023-02-15T02:31:04.651Z,24.77
2023-02-15T02:33:49.702Z,23.33
2023-02-15T02:36:27.181Z,26.80
2023-02-15T02:39:09.154Z,22.37
2023-02-15T02:41:46.636Z,23.17
2023-02-15T02:44:25.083Z,23.47
2023-02-15T02:46:59.682Z,26.27
2023-02-15T02:49:38.461Z,22.70
2023-02-15T02:52:08.978Z,22.23
2023-02-15T02:54:38.097Z,23.27
2023-02-15T02:57:11.090Z,25.73
2023-02-15T02:59:44.514Z,23.23
2023-02-15T03:02:16.434Z,25.73
2023-02-15T03:04:50.256Z,27.37
2023-02-15T03:07:23.107Z,25.57
2023-02-15T03:09:53.757Z,25.87
2023-02-15T03:12:25.760Z,26.27
2023-02-15T03:14:57.640Z,26.60
2023-02-15T03:17:29.767Z,29.60
2023-02-15T03:20:04.924Z,29.47
2023-02-15T03:22:38.094Z,34.20
2023-02-15T03:25:11.110Z,28.97
2023-02-15T03:27:43.850Z,29.17
2023-02-15T03:30:17.603Z,27.37
2023-02-15T03:32:47.330Z,27.00
2023-02-15T03:35:17.283Z,28.53
2023-02-15T03:37:52.574Z,24.90
2023-02-15T03:40:42.815Z,28.57
2023-02-15T03:43:17.563Z,28.80
2023-02-15T03:45:56.722Z,27.50
2023-02-15T03:48:28.688Z,30.63
2023-02-15T03:51:21.750Z,25.80
2023-02-15T03:53:51.731Z,25.70
2023-02-15T03:56:19.874Z,29.20
2023-02-15T03:59:05.557Z,28.10
2023-02-15T04:01:56.620Z,28.00
2023-02-15T04:04:27.607Z,27.03
2023-02-15T04:06:57.167Z,29.77
2023-02-15T04:09:45.728Z,29.53
2023-02-15T04:12:13.920Z,31.93
2023-02-15T04:14:59.737Z,29.97
2023-02-15T04:17:28.468Z,29.97
2023-02-15T04:20:14.176Z,28.33
2023-02-15T04:23:01.111Z,26.77
2023-02-15T04:25:29.163Z,25.87
2023-02-15T04:27:57.463Z,28.97
2023-02-15T04:30:28.819Z,27.23
2023-02-15T04:32:58.773Z,32.53
2023-02-15T04:35:27.044Z,31.53
2023-02-15T04:37:56.985Z,25.87
2023-02-15T04:40:25.315Z,29.77
2023-02-15T04:42:53.532Z,26.70
2023-02-15T04:45:21.803Z,27.13
2023-02-15T04:47:50.481Z,28.23
2023-02-15T04:50:18.855Z,33.37
2023-02-15T04:52:47.218Z,32.63
2023-02-15T04:55:17.255Z,29.33
2023-02-15T04:57:45.414Z,28.57
2023-02-15T05:00:14.374Z,27.60
2023-02-15T05:02:42.577Z,36.17
2023-02-15T05:05:14.127Z,27.07
2023-02-15T05:07:42.256Z,27.07
2023-02-15T05:10:11.392Z,28.13
2023-02-15T05:12:40.914Z,30.10
2023-02-15T05:15:09.972Z,29.53
2023-02-15T05:17:38.286Z,31.20
2023-02-15T05:20:07.675Z,29.33
2023-02-15T05:22:35.806Z,28.63
2023-02-15T05:25:21.453Z,29.17
2023-02-15T05:28:08.384Z,30.23
2023-02-15T05:30:37.211Z,29.07
2023-02-15T05:33:05.631Z,36.17
2023-02-15T05:35:34.772Z,28.17
2023-02-15T05:38:02.917Z,28.77
2023-02-15T05:40:32.168Z,32.97
2023-02-15T05:43:02.046Z,30.03
2023-02-15T05:45:30.263Z,28.90
2023-02-15T05:47:59.148Z,31.03
2023-02-15T05:50:27.941Z,29.17
2023-02-15T05:52:56.045Z,30.27
2023-02-15T05:55:24.235Z,27.30
2023-02-15T05:57:52.555Z,26.50
2023-02-15T06:00:22.876Z,30.17
2023-02-15T06:02:50.964Z,30.37
2023-02-15T06:05:19.229Z,27.87
2023-02-15T06:07:48.153Z,29.80
2023-02-15T06:10:16.497Z,33.60
2023-02-15T06:12:45.815Z,29.03
2023-02-15T06:15:14.985Z,78.73
2023-02-15T06:17:45.067Z,35.40
2023-02-15T06:20:14.246Z,28.80
2023-02-15T06:22:42.552Z,27.50
2023-02-15T06:25:12.429Z,29.57
2023-02-15T06:27:43.940Z,29.47
2023-02-15T06:30:14.006Z,32.07
2023-02-15T06:32:42.375Z,28.90
2023-02-15T06:35:12.632Z,25.63
2023-02-15T06:37:41.261Z,27.63
2023-02-15T06:40:11.346Z,24.90
2023-02-15T06:42:39.452Z,28.67
2023-02-15T06:45:08.597Z,27.27
2023-02-15T06:47:36.876Z,28.77
2023-02-15T06:50:06.404Z,28.30
2023-02-15T06:52:36.662Z,27.07
2023-02-15T06:55:04.906Z,28.33
2023-02-15T06:57:34.402Z,26.13
2023-02-15T07:00:02.787Z,27.80
2023-02-15T07:02:31.077Z,27.20
2023-02-15T07:04:59.478Z,27.83
2023-02-15T07:07:27.748Z,25.80
2023-02-15T07:09:57.328Z,27.23
2023-02-15T07:12:43.828Z,25.53
2023-02-15T07:15:13.789Z,28.00
2023-02-15T07:17:42.095Z,23.30
2023-02-15T07:20:12.863Z,23.27
2023-02-15T07:22:41.250Z,24.60
2023-02-15T07:25:13.173Z,24.50
2023-02-15T07:27:43.095Z,23.53
2023-02-15T07:30:13.957Z,27.50
2023-02-15T07:33:05.074Z,26.30
2023-02-15T07:35:33.990Z,25.63
2023-02-15T07:38:02.501Z,24.53
2023-02-15T07:40:32.407Z,25.77
2023-02-15T07:43:01.117Z,25.10
2023-02-15T07:45:29.479Z,26.93
2023-02-15T07:47:58.457Z,23.80
2023-02-15T07:50:26.676Z,29.50
2023-02-15T07:52:55.165Z,27.10
2023-02-15T07:55:23.586Z,21.50
2023-02-15T07:57:55.055Z,21.83
2023-02-15T08:00:25.967Z,25.13
2023-02-15T08:03:10.840Z,28.50
2023-02-15T08:05:39.125Z,23.67
2023-02-15T08:08:07.464Z,22.47
2023-02-15T08:10:53.546Z,25.43
2023-02-15T08:13:23.254Z,23.70
2023-02-15T08:15:51.822Z,23.23
2023-02-15T08:18:20.029Z,23.57
2023-02-15T08:20:51.549Z,26.43
2023-02-15T08:23:19.723Z,23.30
2023-02-15T08:25:48.072Z,28.20
2023-02-15T08:28:16.198Z,20.50
2023-02-15T08:30:49.903Z,25.27
2023-02-15T08:33:19.055Z,24.63
2023-02-15T08:35:47.369Z,24.23
2023-02-15T08:38:15.833Z,22.77
2023-02-15T08:40:44.057Z,26.47
2023-02-15T08:43:12.187Z,24.53
2023-02-15T08:45:40.545Z,30.03
2023-02-15T08:48:10.362Z,24.63
2023-02-15T08:50:38.760Z,26.63
2023-02-15T08:53:06.851Z,24.40
2023-02-15T08:55:34.910Z,23.77
2023-02-15T08:58:03.135Z,33.10
2023-02-15T09:00:32.281Z,24.50
2023-02-15T09:03:00.376Z,27.03
2023-02-15T09:05:30.168Z,24.03
2023-02-15T09:07:58.250Z,23.07
2023-02-15T09:10:26.435Z,22.13
2023-02-15T09:12:55.151Z,28.57
2023-02-15T09:15:24.521Z,22.10
2023-02-15T09:17:52.677Z,23.43
2023-02-15T09:20:21.138Z,23.97
2023-02-15T09:22:51.063Z,24.50
2023-02-15T09:25:19.323Z,23.20
2023-02-15T09:27:47.670Z,22.50
2023-02-15T09:30:16.286Z,23.53
2023-02-15T09:32:44.352Z,23.43
2023-02-15T09:35:13.279Z,23.33
2023-02-15T09:37:41.443Z,24.97
2023-02-15T09:40:18.021Z,23.20
2023-02-15T09:43:12.696Z,20.53
2023-02-15T09:45:57.596Z,20.63
2023-02-15T09:48:41.604Z,21.27
2023-02-15T09:51:39.410Z,19.80
2023-02-15T09:54:28.168Z,21.53
2023-02-15T09:57:01.983Z,20.00
2023-02-15T09:59:49.416Z,24.03
2023-02-15T10:02:37.601Z,22.13
2023-02-15T10:05:20.858Z,21.63
2023-02-15T10:08:18.102Z,20.93
2023-02-15T10:10:56.428Z,22.50
2023-02-15T10:13:37.827Z,20.43
2023-02-15T10:16:20.590Z,20.00
2023-02-15T10:18:58.216Z,20.60
2023-02-15T10:21:45.442Z,21.47
2023-02-15T10:24:49.561Z,20.40
2023-02-15T10:27:22.401Z,19.87
2023-02-15T10:30:05.978Z,23.43
2023-02-15T10:32:41.416Z,20.37
2023-02-15T10:35:22.390Z,18.73
2023-02-15T10:38:09.456Z,19.97
2023-02-15T10:40:49.408Z,17.60
2023-02-15T10:43:34.650Z,19.07
2023-02-15T10:46:14.519Z,18.30
2023-02-15T10:49:10.632Z,21.20
2023-02-15T10:51:51.019Z,18.47
2023-02-15T10:54:29.972Z,18.90
2023-02-15T10:57:07.302Z,22.27
2023-02-15T11:00:00.790Z,23.00
2023-02-15T11:02:46.704Z,24.20
2023-02-15T11:05:27.869Z,16.73
2023-02-15T11:08:06.239Z,17.57
2023-02-15T11:10:38.914Z,17.03
2023-02-15T11:13:14.188Z,18.43
2023-02-15T11:15:47.052Z,19.60
2023-02-15T11:18:24.955Z,20.33
2023-02-15T11:20:58.859Z,20.57
2023-02-15T11:23:28.702Z,18.90
2023-02-15T11:26:00.332Z,18.47
2023-02-15T11:28:36.622Z,18.13
2023-02-15T11:31:16.213Z,15.63
2023-02-15T11:33:49.051Z,17.07
2023-02-15T11:36:22.152Z,15.50
2023-02-15T11:38:55.210Z,15.60
2023-02-15T11:41:28.312Z,17.67
2023-02-15T11:44:03.354Z,15.83
2023-02-15T11:46:31.640Z,17.10
2023-02-15T11:49:01.883Z,20.00
2023-02-15T11:51:31.650Z,16.70
2023-02-15T11:53:59.794Z,16.10
2023-02-15T11:56:28.380Z,17.33
2023-02-15T11:59:01.591Z,16.87
2023-02-15T12:01:34.573Z,16.90
2023-02-15T12:04:10.320Z,18.13
2023-02-15T12:06:44.207Z,20.53
2023-02-15T12:09:23.795Z,20.07
2023-02-15T12:11:52.031Z,19.87
2023-02-15T12:14:21.974Z,18.13
2023-02-15T12:16:52.927Z,22.83
2023-02-15T12:19:33.837Z,16.10
2023-02-15T12:22:04.576Z,15.03
2023-02-15T12:24:37.453Z,21.43
2023-02-15T12:27:08.690Z,20.83
2023-02-15T12:29:45.307Z,17.97
2023-02-15T12:32:20.891Z,17.80
2023-02-15T12:34:53.192Z,15.40
2023-02-15T12:37:25.348Z,20.87
2023-02-15T12:39:57.104Z,16.00
2023-02-15T12:42:26.931Z,15.17
2023-02-15T12:44:58.360Z,22.17
2023-02-15T12:47:30.833Z,13.80
2023-02-15T12:50:24.588Z,18.30
2023-02-15T12:53:07.473Z,20.70
2023-02-15T12:55:35.741Z,19.33
2023-02-15T12:58:17.174Z,17.70
2023-02-15T13:00:45.584Z,14.70
2023-02-15T13:03:21.552Z,16.30
2023-02-15T13:05:55.563Z,17.33
2023-02-15T13:08:30.068Z,12.87
2023-02-15T13:11:03.116Z,12.33
2023-02-15T13:13:34.440Z,16.73
2023-02-15T13:16:07.268Z,18.77
2023-02-15T13:18:39.552Z,14.83
2023-02-15T13:21:14.802Z,19.63
2023-02-15T13:23:49.699Z,14.17
2023-02-15T13:26:21.804Z,13.57
2023-02-15T13:28:54.698Z,19.27
2023-02-15T13:31:26.214Z,16.80
2023-02-15T13:33:58.092Z,14.97
2023-02-15T13:36:34.666Z,16.13
2023-02-15T13:39:15.870Z,21.07
2023-02-15T13:41:55.363Z,22.57
2023-02-15T13:44:35.042Z,19.83
2023-02-15T13:47:19.535Z,17.97
2023-02-15T13:50:00.632Z,17.50
2023-02-15T13:52:35.275Z,16.17
2023-02-15T13:55:28.929Z,18.53
2023-02-15T13:58:18.506Z,18.67
2023-02-15T14:00:56.342Z,21.47
2023-02-15T14:04:01.830Z,19.17
2023-02-15T14:06:50.788Z,18.10
2023-02-15T14:09:30.602Z,21.80
2023-02-15T14:12:19.534Z,23.60
2023-02-15T14:15:21.822Z,18.27
2023-02-15T14:18:02.744Z,24.83
2023-02-15T14:20:54.371Z,17.33
2023-02-15T14:23:37.294Z,18.70
2023-02-15T14:26:12.614Z,16.17
2023-02-15T14:28:48.894Z,17.00
2023-02-15T14:31:18.700Z,22.07
2023-02-15T14:33:58.582Z,22.50
2023-02-15T14:36:31.385Z,23.57
2023-02-15T14:39:31.645Z,22.83
2023-02-15T14:42:09.255Z,18.73
2023-02-15T14:44:45.186Z,18.67
2023-02-15T14:47:21.753Z,15.50
2023-02-15T14:49:50.128Z,19.43
2023-02-15T14:52:18.197Z,14.80
2023-02-15T14:54:58.431Z,19.20
2023-02-15T14:57:34.850Z,21.87
2023-02-15T15:00:24.735Z,18.53
2023-02-15T15:02:55.864Z,21.67
2023-02-15T15:05:28.740Z,18.90
2023-02-15T15:08:00.215Z,22.37
2023-02-15T15:10:41.865Z,27.83
2023-02-15T15:13:54.420Z,20.70
2023-02-15T15:16:52.396Z,18.07
2023-02-15T15:20:08.576Z,20.70
2023-02-15T15:22:39.171Z,22.43
2023-02-15T15:25:13.018Z,23.37
2023-02-15T15:27:49.652Z,26.50
2023-02-15T15:31:00.811Z,24.47
2023-02-15T15:34:12.241Z,20.17
2023-02-15T15:37:13.021Z,22.17
2023-02-15T15:40:15.716Z,16.97
2023-02-15T15:42:53.982Z,18.10
2023-02-15T15:45:37.805Z,17.47
2023-02-15T15:48:34.804Z,20.00
2023-02-15T15:51:07.973Z,21.53
2023-02-15T15:53:43.605Z,46.03
2023-02-15T15:56:17.089Z,46.57
2023-02-15T15:58:51.985Z,63.87
2023-02-15T16:01:28.981Z,63.77
2023-02-15T16:03:59.549Z,66.90
2023-02-15T16:06:33.481Z,48.03
2023-02-15T16:09:15.555Z,52.67
2023-02-15T16:11:44.382Z,55.80
2023-02-15T16:14:16.400Z,57.10
2023-02-15T16:16:53.333Z,49.10
2023-02-15T16:19:26.744Z,53.73
2023-02-15T16:21:58.706Z,55.17
2023-02-15T16:25:24.398Z,60.43
2023-02-15T16:28:12.361Z,48.07
2023-02-15T16:31:23.518Z,50.17
2023-02-15T16:34:02.439Z,50.67
2023-02-15T16:36:58.566Z,44.83
2023-02-15T16:39:42.463Z,56.00
2023-02-15T16:42:13.608Z,65.03
2023-02-15T16:44:43.275Z,47.50
2023-02-15T16:47:20.660Z,48.40
2023-02-15T16:50:22.874Z,56.13
2023-02-15T16:53:20.368Z,48.37
2023-02-15T16:55:52.768Z,45.67
2023-02-15T16:58:32.251Z,43.53
2023-02-15T17:01:03.981Z,51.80
2023-02-15T17:03:32.625Z,45.67
2023-02-15T17:06:04.439Z,53.40
2023-02-15T17:08:34.279Z,49.90
2023-02-15T17:11:16.157Z,45.83
2023-02-15T17:14:20.942Z,44.13
2023-02-15T17:16:57.906Z,44.97
2023-02-15T17:19:48.428Z,32.77
2023-02-15T17:22:23.351Z,34.70
2023-02-15T17:25:27.256Z,36.60
2023-02-15T17:28:02.013Z,35.07
2023-02-15T17:30:35.289Z,35.43
2023-02-15T17:33:23.995Z,30.33
2023-02-15T17:36:10.257Z,34.17
2023-02-15T17:38:42.886Z,36.07
2023-02-15T17:41:14.692Z,37.27
2023-02-15T17:43:43.231Z,31.90
2023-02-15T17:46:12.179Z,36.40
2023-02-15T17:48:43.842Z,36.03
2023-02-15T17:51:16.349Z,31.47
2023-02-15T17:54:05.779Z,37.13
2023-02-15T17:56:33.246Z,35.60
2023-02-15T17:59:01.586Z,35.43
2023-02-15T18:01:47.768Z,39.60
2023-02-15T18:04:34.834Z,36.03
2023-02-15T18:07:20.608Z,36.40
2023-02-15T18:10:06.809Z,37.87
2023-02-15T18:12:39.146Z,41.83
2023-02-15T18:15:12.724Z,43.50
2023-02-15T18:17:44.104Z,44.40
2023-02-15T18:20:22.098Z,49.23
2023-02-15T18:22:50.985Z,48.40
2023-02-15T18:25:22.385Z,52.63
2023-02-15T18:27:56.917Z,51.77
2023-02-15T18:30:29.473Z,84.63
2023-02-15T18:33:00.125Z,56.93
2023-02-15T18:35:35.447Z,73.87
2023-02-15T18:38:04.925Z,67.23
2023-02-15T18:40:33.234Z,62.23
2023-02-15T18:43:03.452Z,53.43
2023-02-15T18:45:33.453Z,56.53
2023-02-15T18:48:03.179Z,72.37
2023-02-15T18:50:36.598Z,60.33
2023-02-15T18:53:08.416Z,63.03
2023-02-15T18:55:36.774Z,51.23
2023-02-15T18:58:05.913Z,49.57
2023-02-15T19:00:36.365Z,52.10
2023-02-15T19:03:06.238Z,69.30
2023-02-15T19:05:38.262Z,49.60
2023-02-15T19:08:06.734Z,46.30
2023-02-15T19:10:37.301Z,52.83
2023-02-15T19:13:11.624Z,47.77
2023-02-15T19:15:42.154Z,45.90
2023-02-15T19:18:10.271Z,40.93
2023-02-15T19:20:43.736Z,40.07
2023-02-15T19:23:19.610Z,38.23
2023-02-15T19:25:49.805Z,39.30
2023-02-15T19:28:21.258Z,38.67
2023-02-15T19:30:49.598Z,41.43
2023-02-15T19:33:24.331Z,42.70
2023-02-15T19:35:57.801Z,54.43
2023-02-15T19:38:31.404Z,48.53
2023-02-15T19:41:05.104Z,67.97
2023-02-15T19:43:56.801Z,53.20
2023-02-15T19:46:30.491Z,47.43
2023-02-15T19:48:59.271Z,46.00
2023-02-15T19:51:30.201Z,45.13
2023-02-15T19:53:59.596Z,51.33
2023-02-15T19:56:29.449Z,49.57
2023-02-15T19:58:59.630Z,53.17
2023-02-15T20:01:29.302Z,54.53
2023-02-15T20:03:57.758Z,61.93
2023-02-15T20:06:26.290Z,70.47
2023-02-15T20:08:56.605Z,54.00
2023-02-15T20:11:25.826Z,52.37
2023-02-15T20:13:54.324Z,47.23
2023-02-15T20:16:22.769Z,51.73
2023-02-15T20:18:51.969Z,47.40
2023-02-15T20:21:24.150Z,44.73
2023-02-15T20:23:52.531Z,42.57
2023-02-15T20:26:25.283Z,47.27
2023-02-15T20:28:54.250Z,43.73
2023-02-15T20:31:23.246Z,42.23
2023-02-15T20:33:51.650Z,48.37
2023-02-15T20:36:22.036Z,47.63
2023-02-15T20:38:50.821Z,42.13
2023-02-15T20:41:37.716Z,42.10
2023-02-15T20:44:20.610Z,49.53
2023-02-15T20:46:50.238Z,42.63
2023-02-15T20:49:18.518Z,43.00
2023-02-15T20:51:48.662Z,46.30
2023-02-15T20:54:19.462Z,62.57
2023-02-15T20:56:50.536Z,40.40
2023-02-15T20:59:25.442Z,39.00
2023-02-15T21:02:01.005Z,38.60
2023-02-15T21:04:33.236Z,36.83
2023-02-15T21:07:01.969Z,35.80
2023-02-15T21:09:30.722Z,35.50
2023-02-15T21:12:04.520Z,40.03
2023-02-15T21:14:33.332Z,52.13
2023-02-15T21:17:01.604Z,39.63
2023-02-15T21:19:30.326Z,34.07
2023-02-15T21:22:01.197Z,34.10
2023-02-15T21:24:30.455Z,32.10
2023-02-15T21:27:03.678Z,34.90
2023-02-15T21:29:32.232Z,33.73
2023-02-15T21:32:01.446Z,36.60
2023-02-15T21:34:29.619Z,35.53
2023-02-15T21:36:57.667Z,36.90
2023-02-15T21:39:27.628Z,46.53
2023-02-15T21:42:14.932Z,46.93
2023-02-15T21:45:02.229Z,54.17
2023-02-15T21:47:51.082Z,47.80
2023-02-15T21:50:38.683Z,49.97
2023-02-15T21:53:08.462Z,41.73
2023-02-15T21:55:36.764Z,47.50
2023-02-15T21:58:06.137Z,46.03
2023-02-15T22:00:35.844Z,48.43
2023-02-15T22:03:06.371Z,47.50
2023-02-15T22:05:35.277Z,49.97
2023-02-15T22:08:03.444Z,44.70
2023-02-15T22:10:33.569Z,49.07
2023-02-15T22:13:03.271Z,51.13
2023-02-15T22:15:36.439Z,51.00
2023-02-15T22:18:05.265Z,52.37
2023-02-15T22:20:33.509Z,48.93
2023-02-15T22:23:01.504Z,46.17
2023-02-15T22:25:29.626Z,42.63
2023-02-15T22:27:57.858Z,45.90
2023-02-15T22:30:29.003Z,41.53
2023-02-15T22:33:01.081Z,42.23
2023-02-15T22:35:31.351Z,36.73
2023-02-15T22:38:00.110Z,37.90
2023-02-15T22:40:31.470Z,38.73
2023-02-15T22:43:03.250Z,39.87
2023-02-15T22:45:32.915Z,42.13
2023-02-15T22:48:04.259Z,37.77
2023-02-15T22:50:35.337Z,40.27
2023-02-15T22:53:05.113Z,38.60
2023-02-15T22:55:37.819Z,36.70
2023-02-15T22:58:06.411Z,37.33
2023-02-15T23:00:39.570Z,39.57
2023-02-15T23:03:16.930Z,40.83
2023-02-15T23:05:45.836Z,37.97
2023-02-15T23:08:14.645Z,41.27
2023-02-15T23:10:44.631Z,37.40
2023-02-15T23:13:26.140Z,42.33
2023-02-15T23:15:58.098Z,38.77
2023-02-15T23:18:30.737Z,37.93
2023-02-15T23:21:02.078Z,42.37
2023-02-15T23:23:34.481Z,38.33
2023-02-15T23:26:04.515Z,42.70
2023-02-15T23:28:35.800Z,39.43
2023-02-15T23:31:04.743Z,40.90
2023-02-15T23:33:36.235Z,41.33
2023-02-15T23:36:05.445Z,37.70
2023-02-15T23:38:35.420Z,29.77
2023-02-15T23:41:23.045Z,26.73
2023-02-15T23:43:56.246Z,30.60
2023-02-15T23:46:27.908Z,28.07
2023-02-15T23:48:58.010Z,30.47
2023-02-15T23:51:30.893Z,31.27
2023-02-15T23:53:59.574Z,32.60
2023-02-15T23:56:27.663Z,39.97
2023-02-15T23:58:55.809Z,34.73
